sensor_id;sensor_type;location;lat;lon;timestamp;temperature;humidity
37356;DHT22;48747;50.250;18.848;2024-03-02T00:00:01;8.50;99.90
37356;DHT22;48747;50.250;18.848;2024-03-02T00:02:08;8.40;99.90
37356;DHT22;48747;50.250;18.848;2024-03-02T00:04:11;8.30;99.90
37356;DHT22;48747;50.250;18.848;2024-03-02T00:06:19;8.30;99.90
37356;DHT22;48747;50.250;18.848;2024-03-02T00:08:25;8.20;99.90
37356;DHT22;48747;50.250;18.848;2024-03-02T00:10:35;8.20;99.90
37356;DHT22;48747;50.250;18.848;2024-03-02T00:12:33;8.20;99.90
37356;DHT22;48747;50.250;18.848;2024-03-02T00:14:36;8.10;99.90
37356;DHT22;48747;50.250;18.848;2024-03-02T00:16:39;8.10;99.90
37356;DHT22;48747;50.250;18.848;2024-03-02T00:18:43;8.00;99.90
37356;DHT22;48747;50.250;18.848;2024-03-02T00:20:46;8.00;99.90
37356;DHT22;48747;50.250;18.848;2024-03-02T00:22:50;8.00;99.90
37356;DHT22;48747;50.250;18.848;2024-03-02T00:24:54;8.00;99.90
37356;DHT22;48747;50.250;18.848;2024-03-02T00:26:57;7.90;99.90
37356;DHT22;48747;50.250;18.848;2024-03-02T00:29:00;7.90;99.90
37356;DHT22;48747;50.250;18.848;2024-03-02T00:31:13;7.90;99.90
37356;DHT22;48747;50.250;18.848;2024-03-02T00:33:17;7.80;99.90
37356;DHT22;48747;50.250;18.848;2024-03-02T00:35:23;7.80;99.90
37356;DHT22;48747;50.250;18.848;2024-03-02T00:37:26;7.80;99.90
37356;DHT22;48747;50.250;18.848;2024-03-02T00:39:30;7.80;99.90
37356;DHT22;48747;50.250;18.848;2024-03-02T00:41:34;7.90;99.90
37356;DHT22;48747;50.250;18.848;2024-03-02T00:44:00;7.80;99.90
37356;DHT22;48747;50.250;18.848;2024-03-02T00:46:51;7.90;99.90
37356;DHT22;48747;50.250;18.848;2024-03-02T00:50:53;7.80;99.90
37356;DHT22;48747;50.250;18.848;2024-03-02T00:52:53;7.80;99.90
37356;DHT22;48747;50.250;18.848;2024-03-02T00:54:57;7.80;99.90
37356;DHT22;48747;50.250;18.848;2024-03-02T00:57:01;7.80;99.90
37356;DHT22;48747;50.250;18.848;2024-03-02T00:59:04;7.80;99.90
37356;DHT22;48747;50.250;18.848;2024-03-02T01:01:07;7.70;99.90
37356;DHT22;48747;50.250;18.848;2024-03-02T01:03:12;7.70;99.90
37356;DHT22;48747;50.250;18.848;2024-03-02T01:05:15;7.70;99.90
37356;DHT22;48747;50.250;18.848;2024-03-02T01:07:18;7.80;99.90
37356;DHT22;48747;50.250;18.848;2024-03-02T01:09:21;7.70;99.90
37356;DHT22;48747;50.250;18.848;2024-03-02T01:11:27;7.70;99.90
37356;DHT22;48747;50.250;18.848;2024-03-02T01:13:30;7.80;99.90
37356;DHT22;48747;50.250;18.848;2024-03-02T01:15:34;7.80;99.90
37356;DHT22;48747;50.250;18.848;2024-03-02T01:17:37;7.90;99.90
37356;DHT22;48747;50.250;18.848;2024-03-02T01:19:42;7.90;99.90
37356;DHT22;48747;50.250;18.848;2024-03-02T01:21:45;7.90;99.90
37356;DHT22;48747;50.250;18.848;2024-03-02T01:23:48;7.90;99.90
37356;DHT22;48747;50.250;18.848;2024-03-02T01:25:51;8.00;99.90
37356;DHT22;48747;50.250;18.848;2024-03-02T01:27:54;8.00;99.90
37356;DHT22;48747;50.250;18.848;2024-03-02T01:29:57;8.00;99.90
37356;DHT22;48747;50.250;18.848;2024-03-02T01:32:01;8.00;99.90
37356;DHT22;48747;50.250;18.848;2024-03-02T01:34:04;7.90;99.90
37356;DHT22;48747;50.250;18.848;2024-03-02T01:36:07;7.90;99.90
37356;DHT22;48747;50.250;18.848;2024-03-02T01:38:15;7.80;99.90
37356;DHT22;48747;50.250;18.848;2024-03-02T01:40:18;7.80;99.90
37356;DHT22;48747;50.250;18.848;2024-03-02T01:42:21;7.80;99.90
37356;DHT22;48747;50.250;18.848;2024-03-02T01:44:25;7.80;99.90
37356;DHT22;48747;50.250;18.848;2024-03-02T01:46:29;7.70;99.90
37356;DHT22;48747;50.250;18.848;2024-03-02T01:48:32;7.70;99.90
37356;DHT22;48747;50.250;18.848;2024-03-02T01:50:36;7.70;99.90
37356;DHT22;48747;50.250;18.848;2024-03-02T01:52:39;7.70;99.90
37356;DHT22;48747;50.250;18.848;2024-03-02T01:54:42;7.70;99.90
37356;DHT22;48747;50.250;18.848;2024-03-02T01:56:46;7.60;99.90
37356;DHT22;48747;50.250;18.848;2024-03-02T01:58:49;7.60;99.90
37356;DHT22;48747;50.250;18.848;2024-03-02T02:00:52;7.60;99.90
37356;DHT22;48747;50.250;18.848;2024-03-02T02:02:55;7.60;99.90
37356;DHT22;48747;50.250;18.848;2024-03-02T02:04:59;7.60;99.90
37356;DHT22;48747;50.250;18.848;2024-03-02T02:07:02;7.60;99.90
37356;DHT22;48747;50.250;18.848;2024-03-02T02:09:06;7.60;99.90
37356;DHT22;48747;50.250;18.848;2024-03-02T02:11:10;7.60;99.90
37356;DHT22;48747;50.250;18.848;2024-03-02T02:13:13;7.60;99.90
37356;DHT22;48747;50.250;18.848;2024-03-02T02:15:30;7.60;99.90
37356;DHT22;48747;50.250;18.848;2024-03-02T02:17:33;7.60;99.90
37356;DHT22;48747;50.250;18.848;2024-03-02T02:19:36;7.60;99.90
37356;DHT22;48747;50.250;18.848;2024-03-02T02:21:43;7.60;99.90
37356;DHT22;48747;50.250;18.848;2024-03-02T02:23:46;7.60;99.90
37356;DHT22;48747;50.250;18.848;2024-03-02T02:25:50;7.60;99.90
37356;DHT22;48747;50.250;18.848;2024-03-02T02:27:53;7.60;99.90
37356;DHT22;48747;50.250;18.848;2024-03-02T02:29:57;7.70;99.90
37356;DHT22;48747;50.250;18.848;2024-03-02T02:32:00;7.70;99.90
37356;DHT22;48747;50.250;18.848;2024-03-02T02:34:03;7.70;99.90
37356;DHT22;48747;50.250;18.848;2024-03-02T02:36:06;7.70;99.90
37356;DHT22;48747;50.250;18.848;2024-03-02T02:38:09;7.70;99.90
37356;DHT22;48747;50.250;18.848;2024-03-02T02:40:12;7.70;99.90
37356;DHT22;48747;50.250;18.848;2024-03-02T02:42:16;7.70;99.90
37356;DHT22;48747;50.250;18.848;2024-03-02T02:44:19;7.70;99.90
37356;DHT22;48747;50.250;18.848;2024-03-02T02:46:22;7.70;99.90
37356;DHT22;48747;50.250;18.848;2024-03-02T02:48:27;7.70;99.90
37356;DHT22;48747;50.250;18.848;2024-03-02T02:50:29;7.70;99.90
37356;DHT22;48747;50.250;18.848;2024-03-02T02:52:33;7.70;99.90
37356;DHT22;48747;50.250;18.848;2024-03-02T02:54:38;7.70;99.90
37356;DHT22;48747;50.250;18.848;2024-03-02T02:56:41;7.60;99.90
37356;DHT22;48747;50.250;18.848;2024-03-02T02:58:44;7.60;99.90
37356;DHT22;48747;50.250;18.848;2024-03-02T03:00:47;7.60;99.90
37356;DHT22;48747;50.250;18.848;2024-03-02T03:02:50;7.50;99.90
37356;DHT22;48747;50.250;18.848;2024-03-02T03:04:53;7.50;99.90
37356;DHT22;48747;50.250;18.848;2024-03-02T03:06:56;7.50;99.90
37356;DHT22;48747;50.250;18.848;2024-03-02T03:08:59;7.50;99.90
37356;DHT22;48747;50.250;18.848;2024-03-02T03:11:02;7.50;99.90
37356;DHT22;48747;50.250;18.848;2024-03-02T03:13:05;7.50;99.90
37356;DHT22;48747;50.250;18.848;2024-03-02T03:15:10;7.40;99.90
37356;DHT22;48747;50.250;18.848;2024-03-02T03:17:18;7.40;99.90
37356;DHT22;48747;50.250;18.848;2024-03-02T03:19:21;7.40;99.90
37356;DHT22;48747;50.250;18.848;2024-03-02T03:21:24;7.40;99.90
37356;DHT22;48747;50.250;18.848;2024-03-02T03:23:27;7.40;99.90
37356;DHT22;48747;50.250;18.848;2024-03-02T03:25:32;7.40;99.90
37356;DHT22;48747;50.250;18.848;2024-03-02T03:27:35;7.40;99.90
37356;DHT22;48747;50.250;18.848;2024-03-02T03:29:38;7.50;99.90
37356;DHT22;48747;50.250;18.848;2024-03-02T03:31:41;7.50;99.90
37356;DHT22;48747;50.250;18.848;2024-03-02T03:33:44;7.60;99.90
37356;DHT22;48747;50.250;18.848;2024-03-02T03:35:47;7.60;99.90
37356;DHT22;48747;50.250;18.848;2024-03-02T03:37:50;7.60;99.90
37356;DHT22;48747;50.250;18.848;2024-03-02T03:39:54;7.70;99.90
37356;DHT22;48747;50.250;18.848;2024-03-02T03:41:56;7.60;99.90
37356;DHT22;48747;50.250;18.848;2024-03-02T03:43:59;7.70;99.90
37356;DHT22;48747;50.250;18.848;2024-03-02T03:46:03;7.70;99.90
37356;DHT22;48747;50.250;18.848;2024-03-02T03:48:06;7.70;99.90
37356;DHT22;48747;50.250;18.848;2024-03-02T03:50:09;7.70;99.90
37356;DHT22;48747;50.250;18.848;2024-03-02T03:52:12;7.70;99.90
37356;DHT22;48747;50.250;18.848;2024-03-02T03:54:15;7.70;99.90
37356;DHT22;48747;50.250;18.848;2024-03-02T03:56:18;7.70;99.90
37356;DHT22;48747;50.250;18.848;2024-03-02T03:58:22;7.70;99.90
37356;DHT22;48747;50.250;18.848;2024-03-02T04:00:26;7.80;99.90
37356;DHT22;48747;50.250;18.848;2024-03-02T04:02:29;7.70;99.90
37356;DHT22;48747;50.250;18.848;2024-03-02T04:04:37;7.70;99.90
37356;DHT22;48747;50.250;18.848;2024-03-02T04:06:37;7.70;99.90
37356;DHT22;48747;50.250;18.848;2024-03-02T04:08:41;7.70;99.90
37356;DHT22;48747;50.250;18.848;2024-03-02T04:10:45;7.70;99.90
37356;DHT22;48747;50.250;18.848;2024-03-02T04:12:50;7.70;99.90
37356;DHT22;48747;50.250;18.848;2024-03-02T04:14:53;7.70;99.90
37356;DHT22;48747;50.250;18.848;2024-03-02T04:16:56;7.70;99.90
37356;DHT22;48747;50.250;18.848;2024-03-02T04:18:59;7.70;99.90
37356;DHT22;48747;50.250;18.848;2024-03-02T04:21:02;7.60;99.90
37356;DHT22;48747;50.250;18.848;2024-03-02T04:23:05;7.60;99.90
37356;DHT22;48747;50.250;18.848;2024-03-02T04:25:08;7.60;99.90
37356;DHT22;48747;50.250;18.848;2024-03-02T04:27:11;7.60;99.90
37356;DHT22;48747;50.250;18.848;2024-03-02T04:29:14;7.60;99.90
37356;DHT22;48747;50.250;18.848;2024-03-02T04:31:17;7.60;99.90
37356;DHT22;48747;50.250;18.848;2024-03-02T04:33:21;7.60;99.90
37356;DHT22;48747;50.250;18.848;2024-03-02T04:35:25;7.50;99.90
37356;DHT22;48747;50.250;18.848;2024-03-02T04:37:28;7.50;99.90
37356;DHT22;48747;50.250;18.848;2024-03-02T04:39:31;7.50;99.90
37356;DHT22;48747;50.250;18.848;2024-03-02T04:41:34;7.50;99.90
37356;DHT22;48747;50.250;18.848;2024-03-02T04:43:40;7.50;99.90
37356;DHT22;48747;50.250;18.848;2024-03-02T04:45:44;7.50;99.90
37356;DHT22;48747;50.250;18.848;2024-03-02T04:47:47;7.40;99.90
37356;DHT22;48747;50.250;18.848;2024-03-02T04:49:50;7.40;99.90
37356;DHT22;48747;50.250;18.848;2024-03-02T04:51:53;7.40;99.90
37356;DHT22;48747;50.250;18.848;2024-03-02T04:53:56;7.40;99.90
37356;DHT22;48747;50.250;18.848;2024-03-02T04:55:59;7.40;99.90
37356;DHT22;48747;50.250;18.848;2024-03-02T04:58:20;7.40;99.90
37356;DHT22;48747;50.250;18.848;2024-03-02T05:00:23;7.40;99.90
37356;DHT22;48747;50.250;18.848;2024-03-02T05:02:26;7.30;99.90
37356;DHT22;48747;50.250;18.848;2024-03-02T05:04:29;7.20;99.90
37356;DHT22;48747;50.250;18.848;2024-03-02T05:06:32;7.20;99.90
37356;DHT22;48747;50.250;18.848;2024-03-02T05:08:35;7.20;99.90
37356;DHT22;48747;50.250;18.848;2024-03-02T05:10:40;7.20;99.90
37356;DHT22;48747;50.250;18.848;2024-03-02T05:12:43;7.20;99.90
37356;DHT22;48747;50.250;18.848;2024-03-02T05:14:48;7.20;99.90
37356;DHT22;48747;50.250;18.848;2024-03-02T05:16:52;7.20;99.90
37356;DHT22;48747;50.250;18.848;2024-03-02T05:18:55;7.20;99.90
37356;DHT22;48747;50.250;18.848;2024-03-02T05:20:58;7.20;99.90
37356;DHT22;48747;50.250;18.848;2024-03-02T05:23:03;7.20;99.90
37356;DHT22;48747;50.250;18.848;2024-03-02T05:25:06;7.20;99.90
37356;DHT22;48747;50.250;18.848;2024-03-02T05:27:11;7.20;99.90
37356;DHT22;48747;50.250;18.848;2024-03-02T05:29:17;7.30;99.90
37356;DHT22;48747;50.250;18.848;2024-03-02T05:31:21;7.30;99.90
37356;DHT22;48747;50.250;18.848;2024-03-02T05:33:24;7.30;99.90
37356;DHT22;48747;50.250;18.848;2024-03-02T05:35:27;7.30;99.90
37356;DHT22;48747;50.250;18.848;2024-03-02T05:37:30;7.30;99.90
37356;DHT22;48747;50.250;18.848;2024-03-02T05:39:35;7.30;99.90
37356;DHT22;48747;50.250;18.848;2024-03-02T05:41:38;7.30;99.90
37356;DHT22;48747;50.250;18.848;2024-03-02T05:43:41;7.20;99.90
37356;DHT22;48747;50.250;18.848;2024-03-02T05:47:52;7.20;99.90
37356;DHT22;48747;50.250;18.848;2024-03-02T05:49:55;7.20;99.90
37356;DHT22;48747;50.250;18.848;2024-03-02T05:52:00;7.20;99.90
37356;DHT22;48747;50.250;18.848;2024-03-02T05:54:04;7.30;99.90
37356;DHT22;48747;50.250;18.848;2024-03-02T05:56:07;7.20;99.90
37356;DHT22;48747;50.250;18.848;2024-03-02T05:58:10;7.30;99.90
37356;DHT22;48747;50.250;18.848;2024-03-02T06:00:21;7.30;99.90
37356;DHT22;48747;50.250;18.848;2024-03-02T06:02:24;7.40;99.90
37356;DHT22;48747;50.250;18.848;2024-03-02T06:04:28;7.40;99.90
37356;DHT22;48747;50.250;18.848;2024-03-02T06:06:31;7.40;99.90
37356;DHT22;48747;50.250;18.848;2024-03-02T06:08:36;7.50;99.90
37356;DHT22;48747;50.250;18.848;2024-03-02T06:10:39;7.50;99.90
37356;DHT22;48747;50.250;18.848;2024-03-02T06:12:44;7.50;99.90
37356;DHT22;48747;50.250;18.848;2024-03-02T06:14:47;7.50;99.90
37356;DHT22;48747;50.250;18.848;2024-03-02T06:16:50;7.60;99.90
37356;DHT22;48747;50.250;18.848;2024-03-02T06:18:53;7.60;99.90
37356;DHT22;48747;50.250;18.848;2024-03-02T06:20:57;7.60;99.90
37356;DHT22;48747;50.250;18.848;2024-03-02T06:23:00;7.60;99.90
37356;DHT22;48747;50.250;18.848;2024-03-02T06:25:04;7.70;99.90
37356;DHT22;48747;50.250;18.848;2024-03-02T06:27:07;7.70;99.90
37356;DHT22;48747;50.250;18.848;2024-03-02T06:29:10;7.70;99.90
37356;DHT22;48747;50.250;18.848;2024-03-02T06:31:13;7.70;99.90
37356;DHT22;48747;50.250;18.848;2024-03-02T06:33:16;7.70;99.90
37356;DHT22;48747;50.250;18.848;2024-03-02T06:35:19;7.70;99.90
37356;DHT22;48747;50.250;18.848;2024-03-02T06:37:25;7.70;99.90
37356;DHT22;48747;50.250;18.848;2024-03-02T06:39:28;7.70;99.90
37356;DHT22;48747;50.250;18.848;2024-03-02T06:41:34;7.70;99.90
37356;DHT22;48747;50.250;18.848;2024-03-02T06:43:37;7.70;99.90
37356;DHT22;48747;50.250;18.848;2024-03-02T06:45:41;7.80;99.90
37356;DHT22;48747;50.250;18.848;2024-03-02T06:47:44;7.70;99.90
37356;DHT22;48747;50.250;18.848;2024-03-02T06:49:47;7.70;99.90
37356;DHT22;48747;50.250;18.848;2024-03-02T06:51:50;7.70;99.90
37356;DHT22;48747;50.250;18.848;2024-03-02T06:53:53;7.70;99.90
37356;DHT22;48747;50.250;18.848;2024-03-02T06:55:57;7.80;99.90
37356;DHT22;48747;50.250;18.848;2024-03-02T06:58:00;7.80;99.90
37356;DHT22;48747;50.250;18.848;2024-03-02T07:00:03;7.90;99.90
37356;DHT22;48747;50.250;18.848;2024-03-02T07:02:07;7.90;99.90
37356;DHT22;48747;50.250;18.848;2024-03-02T07:04:10;7.90;99.90
37356;DHT22;48747;50.250;18.848;2024-03-02T07:06:15;7.90;99.90
37356;DHT22;48747;50.250;18.848;2024-03-02T07:08:18;8.00;99.90
37356;DHT22;48747;50.250;18.848;2024-03-02T07:10:21;8.00;99.90
37356;DHT22;48747;50.250;18.848;2024-03-02T07:12:24;8.00;99.90
37356;DHT22;48747;50.250;18.848;2024-03-02T07:14:28;8.00;99.90
37356;DHT22;48747;50.250;18.848;2024-03-02T07:16:49;8.00;99.90
37356;DHT22;48747;50.250;18.848;2024-03-02T07:18:52;8.10;99.90
37356;DHT22;48747;50.250;18.848;2024-03-02T07:20:57;8.10;99.90
37356;DHT22;48747;50.250;18.848;2024-03-02T07:23:02;8.10;99.90
37356;DHT22;48747;50.250;18.848;2024-03-02T07:25:05;8.20;99.90
37356;DHT22;48747;50.250;18.848;2024-03-02T07:27:11;8.20;99.90
37356;DHT22;48747;50.250;18.848;2024-03-02T07:29:14;8.30;99.90
37356;DHT22;48747;50.250;18.848;2024-03-02T07:31:17;8.30;99.90
37356;DHT22;48747;50.250;18.848;2024-03-02T07:33:20;8.40;99.90
37356;DHT22;48747;50.250;18.848;2024-03-02T07:35:25;8.50;99.90
37356;DHT22;48747;50.250;18.848;2024-03-02T07:37:34;8.50;99.90
37356;DHT22;48747;50.250;18.848;2024-03-02T07:39:37;8.50;99.90
37356;DHT22;48747;50.250;18.848;2024-03-02T07:41:40;8.50;99.90
37356;DHT22;48747;50.250;18.848;2024-03-02T07:43:44;8.50;99.90
37356;DHT22;48747;50.250;18.848;2024-03-02T07:45:48;8.50;99.90
37356;DHT22;48747;50.250;18.848;2024-03-02T07:47:51;8.60;99.90
37356;DHT22;48747;50.250;18.848;2024-03-02T07:49:54;8.50;99.90
37356;DHT22;48747;50.250;18.848;2024-03-02T07:51:57;8.50;99.90
37356;DHT22;48747;50.250;18.848;2024-03-02T07:54:00;8.60;99.90
37356;DHT22;48747;50.250;18.848;2024-03-02T07:56:04;8.60;99.90
37356;DHT22;48747;50.250;18.848;2024-03-02T07:58:08;8.60;99.90
37356;DHT22;48747;50.250;18.848;2024-03-02T08:00:11;8.70;99.90
37356;DHT22;48747;50.250;18.848;2024-03-02T08:02:14;8.80;99.90
37356;DHT22;48747;50.250;18.848;2024-03-02T08:04:17;8.80;99.90
37356;DHT22;48747;50.250;18.848;2024-03-02T08:06:21;8.80;99.90
37356;DHT22;48747;50.250;18.848;2024-03-02T08:08:24;8.90;99.90
37356;DHT22;48747;50.250;18.848;2024-03-02T08:10:27;8.90;99.90
37356;DHT22;48747;50.250;18.848;2024-03-02T08:12:30;9.00;99.90
37356;DHT22;48747;50.250;18.848;2024-03-02T08:14:34;9.00;99.90
37356;DHT22;48747;50.250;18.848;2024-03-02T08:16:37;9.10;99.90
37356;DHT22;48747;50.250;18.848;2024-03-02T08:18:40;9.10;99.90
37356;DHT22;48747;50.250;18.848;2024-03-02T08:20:43;9.20;99.90
37356;DHT22;48747;50.250;18.848;2024-03-02T08:22:47;9.20;99.90
37356;DHT22;48747;50.250;18.848;2024-03-02T08:24:51;9.30;99.90
37356;DHT22;48747;50.250;18.848;2024-03-02T08:26:54;9.30;99.90
37356;DHT22;48747;50.250;18.848;2024-03-02T08:28:58;9.30;99.90
37356;DHT22;48747;50.250;18.848;2024-03-02T08:31:03;9.40;99.90
37356;DHT22;48747;50.250;18.848;2024-03-02T08:33:08;9.40;99.90
37356;DHT22;48747;50.250;18.848;2024-03-02T08:35:11;9.60;99.90
37356;DHT22;48747;50.250;18.848;2024-03-02T08:37:16;9.60;99.90
37356;DHT22;48747;50.250;18.848;2024-03-02T08:39:19;9.60;99.90
37356;DHT22;48747;50.250;18.848;2024-03-02T08:41:27;9.70;99.90
37356;DHT22;48747;50.250;18.848;2024-03-02T08:43:27;9.70;99.90
37356;DHT22;48747;50.250;18.848;2024-03-02T08:45:30;9.80;99.90
37356;DHT22;48747;50.250;18.848;2024-03-02T08:47:34;9.90;99.90
37356;DHT22;48747;50.250;18.848;2024-03-02T08:49:37;9.90;99.90
37356;DHT22;48747;50.250;18.848;2024-03-02T08:51:40;10.00;99.90
37356;DHT22;48747;50.250;18.848;2024-03-02T08:53:44;10.10;99.90
37356;DHT22;48747;50.250;18.848;2024-03-02T08:55:47;10.20;99.90
37356;DHT22;48747;50.250;18.848;2024-03-02T08:57:50;10.30;99.90
37356;DHT22;48747;50.250;18.848;2024-03-02T08:59:54;10.40;99.90
37356;DHT22;48747;50.250;18.848;2024-03-02T09:01:57;10.40;99.90
37356;DHT22;48747;50.250;18.848;2024-03-02T09:04:00;10.50;99.90
37356;DHT22;48747;50.250;18.848;2024-03-02T09:06:03;10.50;99.90
37356;DHT22;48747;50.250;18.848;2024-03-02T09:08:06;10.60;99.90
37356;DHT22;48747;50.250;18.848;2024-03-02T09:10:10;10.70;99.90
37356;DHT22;48747;50.250;18.848;2024-03-02T09:12:13;10.70;99.90
37356;DHT22;48747;50.250;18.848;2024-03-02T09:14:16;10.80;99.90
37356;DHT22;48747;50.250;18.848;2024-03-02T09:16:19;10.80;99.90
37356;DHT22;48747;50.250;18.848;2024-03-02T09:18:27;10.80;99.90
37356;DHT22;48747;50.250;18.848;2024-03-02T09:20:27;10.80;99.90
37356;DHT22;48747;50.250;18.848;2024-03-02T09:22:30;10.80;99.90
37356;DHT22;48747;50.250;18.848;2024-03-02T09:24:34;10.80;99.90
37356;DHT22;48747;50.250;18.848;2024-03-02T09:26:37;10.90;99.90
37356;DHT22;48747;50.250;18.848;2024-03-02T09:28:44;10.90;99.90
37356;DHT22;48747;50.250;18.848;2024-03-02T09:30:47;10.90;99.90
37356;DHT22;48747;50.250;18.848;2024-03-02T09:32:50;10.90;99.90
37356;DHT22;48747;50.250;18.848;2024-03-02T09:34:53;11.00;99.90
37356;DHT22;48747;50.250;18.848;2024-03-02T09:36:58;11.00;99.90
37356;DHT22;48747;50.250;18.848;2024-03-02T09:39:01;11.10;99.90
37356;DHT22;48747;50.250;18.848;2024-03-02T09:41:05;11.20;99.90
37356;DHT22;48747;50.250;18.848;2024-03-02T09:43:09;11.30;99.90
37356;DHT22;48747;50.250;18.848;2024-03-02T09:45:12;11.20;99.90
37356;DHT22;48747;50.250;18.848;2024-03-02T09:47:15;11.30;99.90
37356;DHT22;48747;50.250;18.848;2024-03-02T09:49:18;11.20;99.90
37356;DHT22;48747;50.250;18.848;2024-03-02T09:51:21;11.30;99.90
37356;DHT22;48747;50.250;18.848;2024-03-02T09:53:26;11.30;99.90
37356;DHT22;48747;50.250;18.848;2024-03-02T09:55:30;11.40;99.90
37356;DHT22;48747;50.250;18.848;2024-03-02T09:57:33;11.40;99.90
37356;DHT22;48747;50.250;18.848;2024-03-02T09:59:36;11.50;99.90
37356;DHT22;48747;50.250;18.848;2024-03-02T10:01:39;11.50;99.90
37356;DHT22;48747;50.250;18.848;2024-03-02T10:03:44;11.50;99.90
37356;DHT22;48747;50.250;18.848;2024-03-02T10:05:49;11.50;99.90
37356;DHT22;48747;50.250;18.848;2024-03-02T10:08:02;11.50;99.90
37356;DHT22;48747;50.250;18.848;2024-03-02T10:10:15;11.60;99.90
37356;DHT22;48747;50.250;18.848;2024-03-02T10:12:18;11.60;99.90
37356;DHT22;48747;50.250;18.848;2024-03-02T10:14:22;11.60;99.90
37356;DHT22;48747;50.250;18.848;2024-03-02T10:16:27;11.70;99.90
37356;DHT22;48747;50.250;18.848;2024-03-02T10:18:30;11.80;99.90
37356;DHT22;48747;50.250;18.848;2024-03-02T10:20:33;11.80;99.90
37356;DHT22;48747;50.250;18.848;2024-03-02T10:22:37;11.80;99.90
37356;DHT22;48747;50.250;18.848;2024-03-02T10:24:41;11.80;99.90
37356;DHT22;48747;50.250;18.848;2024-03-02T10:26:46;11.80;99.90
37356;DHT22;48747;50.250;18.848;2024-03-02T10:28:49;11.90;99.90
37356;DHT22;48747;50.250;18.848;2024-03-02T10:30:54;11.80;99.90
37356;DHT22;48747;50.250;18.848;2024-03-02T10:32:57;11.80;99.90
37356;DHT22;48747;50.250;18.848;2024-03-02T10:35:00;11.80;99.90
37356;DHT22;48747;50.250;18.848;2024-03-02T10:37:04;11.80;99.90
37356;DHT22;48747;50.250;18.848;2024-03-02T10:39:10;11.80;99.90
37356;DHT22;48747;50.250;18.848;2024-03-02T10:41:18;11.70;99.90
37356;DHT22;48747;50.250;18.848;2024-03-02T10:43:23;11.80;99.90
37356;DHT22;48747;50.250;18.848;2024-03-02T10:45:26;11.80;99.90
37356;DHT22;48747;50.250;18.848;2024-03-02T10:47:31;11.80;99.90
37356;DHT22;48747;50.250;18.848;2024-03-02T10:49:37;11.90;99.90
37356;DHT22;48747;50.250;18.848;2024-03-02T10:51:41;11.90;99.90
37356;DHT22;48747;50.250;18.848;2024-03-02T10:53:44;11.80;99.90
37356;DHT22;48747;50.250;18.848;2024-03-02T10:55:48;11.90;99.90
37356;DHT22;48747;50.250;18.848;2024-03-02T10:57:54;11.90;99.90
37356;DHT22;48747;50.250;18.848;2024-03-02T11:00:02;11.80;99.90
37356;DHT22;48747;50.250;18.848;2024-03-02T11:02:07;11.70;99.90
37356;DHT22;48747;50.250;18.848;2024-03-02T11:04:15;11.70;99.90
37356;DHT22;48747;50.250;18.848;2024-03-02T11:06:18;11.70;99.90
37356;DHT22;48747;50.250;18.848;2024-03-02T11:08:23;11.60;99.90
37356;DHT22;48747;50.250;18.848;2024-03-02T11:10:30;11.60;99.90
37356;DHT22;48747;50.250;18.848;2024-03-02T11:12:53;11.60;99.90
37356;DHT22;48747;50.250;18.848;2024-03-02T11:14:51;11.60;99.90
37356;DHT22;48747;50.250;18.848;2024-03-02T11:16:54;11.70;99.90
37356;DHT22;48747;50.250;18.848;2024-03-02T11:18:58;11.70;99.90
37356;DHT22;48747;50.250;18.848;2024-03-02T11:21:03;11.70;99.90
37356;DHT22;48747;50.250;18.848;2024-03-02T11:23:09;11.70;99.90
37356;DHT22;48747;50.250;18.848;2024-03-02T11:25:26;11.80;99.90
37356;DHT22;48747;50.250;18.848;2024-03-02T11:27:58;11.90;99.90
37356;DHT22;48747;50.250;18.848;2024-03-02T11:29:55;12.00;99.90
37356;DHT22;48747;50.250;18.848;2024-03-02T11:31:58;12.00;99.90
37356;DHT22;48747;50.250;18.848;2024-03-02T11:36:24;12.00;99.90
37356;DHT22;48747;50.250;18.848;2024-03-02T11:38:29;12.00;99.90
37356;DHT22;48747;50.250;18.848;2024-03-02T11:40:33;12.00;99.90
37356;DHT22;48747;50.250;18.848;2024-03-02T11:42:36;11.90;99.90
37356;DHT22;48747;50.250;18.848;2024-03-02T11:44:43;11.80;99.90
37356;DHT22;48747;50.250;18.848;2024-03-02T11:46:52;11.80;99.90
37356;DHT22;48747;50.250;18.848;2024-03-02T11:48:55;11.80;99.90
37356;DHT22;48747;50.250;18.848;2024-03-02T11:50:59;11.70;99.90
37356;DHT22;48747;50.250;18.848;2024-03-02T11:53:08;11.70;99.90
37356;DHT22;48747;50.250;18.848;2024-03-02T11:55:12;11.70;99.90
37356;DHT22;48747;50.250;18.848;2024-03-02T11:57:17;11.80;99.90
37356;DHT22;48747;50.250;18.848;2024-03-02T11:59:21;11.90;99.90
37356;DHT22;48747;50.250;18.848;2024-03-02T12:01:24;11.90;99.90
37356;DHT22;48747;50.250;18.848;2024-03-02T12:03:27;12.00;99.90
37356;DHT22;48747;50.250;18.848;2024-03-02T12:05:31;12.00;99.90
37356;DHT22;48747;50.250;18.848;2024-03-02T12:07:35;12.00;99.90
37356;DHT22;48747;50.250;18.848;2024-03-02T12:09:38;12.00;99.90
37356;DHT22;48747;50.250;18.848;2024-03-02T12:11:41;12.00;99.90
37356;DHT22;48747;50.250;18.848;2024-03-02T12:13:52;12.10;99.90
37356;DHT22;48747;50.250;18.848;2024-03-02T12:16:02;12.10;99.90
37356;DHT22;48747;50.250;18.848;2024-03-02T12:18:02;12.10;99.90
37356;DHT22;48747;50.250;18.848;2024-03-02T12:20:08;12.10;99.90
37356;DHT22;48747;50.250;18.848;2024-03-02T12:22:12;12.20;99.90
37356;DHT22;48747;50.250;18.848;2024-03-02T12:24:15;12.30;99.90
37356;DHT22;48747;50.250;18.848;2024-03-02T12:26:18;12.30;99.90
37356;DHT22;48747;50.250;18.848;2024-03-02T12:28:22;12.30;99.90
37356;DHT22;48747;50.250;18.848;2024-03-02T12:30:29;12.30;99.90
37356;DHT22;48747;50.250;18.848;2024-03-02T12:32:31;12.30;99.90
37356;DHT22;48747;50.250;18.848;2024-03-02T12:34:34;12.20;99.90
37356;DHT22;48747;50.250;18.848;2024-03-02T12:36:38;12.20;99.90
37356;DHT22;48747;50.250;18.848;2024-03-02T12:38:46;12.30;99.90
37356;DHT22;48747;50.250;18.848;2024-03-02T12:40:49;12.30;99.90
37356;DHT22;48747;50.250;18.848;2024-03-02T12:42:52;12.30;99.90
37356;DHT22;48747;50.250;18.848;2024-03-02T12:44:57;12.30;99.90
37356;DHT22;48747;50.250;18.848;2024-03-02T12:47:00;12.30;99.90
37356;DHT22;48747;50.250;18.848;2024-03-02T12:49:11;12.30;99.90
37356;DHT22;48747;50.250;18.848;2024-03-02T12:51:15;12.30;99.90
37356;DHT22;48747;50.250;18.848;2024-03-02T12:53:19;12.20;99.90
37356;DHT22;48747;50.250;18.848;2024-03-02T12:55:23;12.20;99.90
37356;DHT22;48747;50.250;18.848;2024-03-02T12:57:27;12.10;99.90
37356;DHT22;48747;50.250;18.848;2024-03-02T12:59:31;12.10;99.90
37356;DHT22;48747;50.250;18.848;2024-03-02T13:01:34;12.10;99.90
37356;DHT22;48747;50.250;18.848;2024-03-02T13:03:38;12.10;99.90
37356;DHT22;48747;50.250;18.848;2024-03-02T13:05:41;12.10;99.90